KNQA/NQA METAR and TAF weather

Enter ICAO airport designator
Station Type Date Time Source
KNQA METAR 2021/04/13 21:50 UTC NOAA

KNQA 132150Z 02003G11KT 10SM CLR 23/11 A3002


Station Type Date Time Source
KNQA Decoded METAR 2021/04/13 21:50 UTC NOAA

Millington, Millington Municipal Airport, TN, United States (KNQA) 35-21-24N 089-52-13W
Apr 13, 2021 - 05:50 PM EDT / 2021.04.13 2150 UTC
Wind: from the NNE (020 degrees) at 3 MPH (3 KT) gusting to 13 MPH (11 KT):0
Visibility: 10 mile(s):0
Sky conditions: clear
Temperature: 73 F (23 C)
Dew Point: 51 F (11 C)
Relative Humidity: 46%
Pressure (altimeter): 30.02 in. Hg (1016 hPa)
ob: KNQA 132150Z 02003G11KT 10SM CLR 23/11 A3002
cycle: 22

Station Type Date Time Source
KNQA TAF UTC NOAA

Error!

Example: see airport list